Time;durP1;ratioP1;P1;durP2;ratioP2;P2;SDS_P1;SDS_P2;PMS_P1;PMS_P2;Temp;Humidity;BMP_temperature;BMP_pressure;BME280_temperature;BME280_humidity;BME280_pressure;Samples;Min_cycle;Max_cycle;Signal;HPM_P1;HPM_P2
2021/05/19 00:01:44;;;;;;;5.28;3.20;;;;;;;8.98;87.25;96132.66;127448;1104;23834;-83
2021/05/19 00:04:15;;;;;;;6.85;3.90;;;;;;;8.94;87.00;96132.43;127411;1104;23049;-83
2021/05/19 00:06:45;;;;;;;4.90;3.35;;;;;;;8.90;87.16;96131.42;127425;1100;26265;-85
2021/05/19 00:09:16;;;;;;;6.65;3.53;;;;;;;8.85;87.47;96128.80;127415;1104;26229;-85
2021/05/19 00:11:47;;;;;;;7.18;3.80;;;;;;;8.82;87.44;96127.52;127417;1104;23568;-83
2021/05/19 00:14:20;;;;;;;7.00;3.30;;;;;;;8.80;87.23;96123.58;127441;1104;36336;-86
2021/05/19 00:16:50;;;;;;;6.37;3.67;;;;;;;8.83;88.21;96128.30;127454;1104;25523;-85
2021/05/19 00:19:20;;;;;;;5.95;4.13;;;;;;;8.89;88.07;96130.63;127454;1104;23416;-84
2021/05/19 00:21:51;;;;;;;5.75;3.43;;;;;;;8.85;87.70;96131.45;127416;1104;27450;-85
2021/05/19 00:24:21;;;;;;;5.13;3.75;;;;;;;8.84;88.53;96130.66;127423;1098;25912;-85
2021/05/19 00:26:52;;;;;;;6.48;3.63;;;;;;;8.84;88.23;96125.38;127442;1104;25058;-82
2021/05/19 00:29:22;;;;;;;5.88;3.63;;;;;;;8.90;88.65;96129.56;127400;1099;26282;-84
2021/05/19 00:31:51;;;;;;;6.10;3.73;;;;;;;8.93;88.26;96128.22;127364;1104;26378;-84
2021/05/19 00:34:21;;;;;;;5.75;4.50;;;;;;;8.93;88.61;96123.71;127417;1104;27317;-83
2021/05/19 00:36:51;;;;;;;5.53;3.93;;;;;;;8.91;88.40;96128.50;127391;1104;25243;-83
2021/05/19 00:39:21;;;;;;;5.68;4.20;;;;;;;8.91;88.83;96125.85;127421;1104;22959;-82
2021/05/19 00:41:51;;;;;;;6.97;4.27;;;;;;;8.89;88.57;96116.63;127409;1104;23387;-82
2021/05/19 00:44:21;;;;;;;5.83;4.20;;;;;;;8.82;88.34;96124.87;127432;1103;24144;-85
2021/05/19 00:46:56;;;;;;;5.40;3.83;;;;;;;8.75;88.32;96120.98;127426;1100;24577;-82
2021/05/19 00:49:25;;;;;;;5.20;3.43;;;;;;;8.67;88.37;96130.29;127336;1100;79657;-83
2021/05/19 00:51:55;;;;;;;6.45;4.50;;;;;;;8.61;88.63;96126.13;127420;1104;22980;-83
2021/05/19 00:54:25;;;;;;;7.73;4.00;;;;;;;8.59;88.56;96130.91;127407;1104;24881;-84
2021/05/19 00:56:55;;;;;;;6.00;4.18;;;;;;;8.56;88.27;96124.29;127322;1098;37346;-83
2021/05/19 00:59:25;;;;;;;5.55;3.73;;;;;;;8.51;88.77;96123.56;127408;1104;25735;-84
2021/05/19 01:01:55;;;;;;;6.50;4.10;;;;;;;8.50;88.68;96119.34;127410;1104;24245;-83
2021/05/19 01:04:24;;;;;;;5.33;3.98;;;;;;;8.47;88.57;96123.33;127386;1099;27314;-83
2021/05/19 01:06:56;;;;;;;5.85;4.13;;;;;;;8.43;88.43;96135.48;127415;1104;22818;-82
2021/05/19 01:09:35;;;;;;;5.95;4.10;;;;;;;8.40;88.85;96124.69;127378;1104;25050;-83
2021/05/19 01:12:10;;;;;;;4.75;3.33;;;;;;;8.34;88.83;96129.23;127447;1100;25076;-85
2021/05/19 01:14:41;;;;;;;6.38;4.80;;;;;;;8.33;88.85;96125.77;127357;1104;29771;-88
2021/05/19 01:17:11;;;;;;;6.78;4.43;;;;;;;8.30;88.63;96128.97;127407;1104;23653;-86
2021/05/19 01:19:41;;;;;;;;;;;;;;;8.25;88.46;96126.34;127409;1104;30058;-83
2021/05/19 01:22:13;;;;;;;6.10;3.93;;;;;;;8.20;88.76;96121.11;127443;1104;24531;-88
2021/05/19 01:24:43;;;;;;;4.50;3.58;;;;;;;8.19;88.72;96130.09;127366;1096;26587;-84
2021/05/19 01:27:13;;;;;;;6.03;3.83;;;;;;;8.16;88.89;96127.20;127416;1096;27123;-86
2021/05/19 01:29:46;;;;;;;5.03;3.43;;;;;;;8.05;88.83;96131.77;127427;1104;26976;-84
2021/05/19 01:32:16;;;;;;;5.65;4.20;;;;;;;7.94;89.04;96133.67;127413;1103;57258;-86
2021/05/19 01:34:46;;;;;;;6.33;4.73;;;;;;;7.91;89.35;96130.80;127424;1104;24948;-82
2021/05/19 01:37:17;;;;;;;5.70;3.60;;;;;;;7.89;89.48;96140.84;127366;1104;26946;-84
2021/05/19 01:39:48;;;;;;;6.33;4.40;;;;;;;7.85;89.45;96134.51;127454;1104;22812;-85
2021/05/19 01:42:18;;;;;;;5.90;4.50;;;;;;;7.80;89.66;96135.33;127472;1104;26419;-83
2021/05/19 01:44:49;;;;;;;5.40;4.08;;;;;;;7.83;90.05;96134.00;127396;1103;64536;-84
2021/05/19 01:47:30;;;;;;;5.23;4.10;;;;;;;7.93;90.70;96133.95;127444;1104;28540;-86
2021/05/19 01:50:00;;;;;;;5.68;3.63;;;;;;;7.92;89.83;96132.38;127418;1103;24683;-83
2021/05/19 01:52:30;;;;;;;5.65;4.23;;;;;;;7.89;90.33;96135.56;127388;1104;29633;-86
2021/05/19 01:55:01;;;;;;;5.90;3.83;;;;;;;7.84;90.37;96140.84;127372;1104;28266;-84
2021/05/19 01:57:32;;;;;;;6.18;4.40;;;;;;;7.97;90.75;96132.34;127386;1103;28703;-83
2021/05/19 02:00:03;;;;;;;4.68;4.15;;;;;;;7.92;90.01;96135.02;127482;1103;26753;-85
2021/05/19 02:02:33;;;;;;;4.98;4.08;;;;;;;7.85;90.11;96139.78;127387;1103;26181;-88
2021/05/19 02:05:05;;;;;;;6.68;4.53;;;;;;;7.82;90.19;96140.34;127430;1104;25578;-84
2021/05/19 02:07:38;;;;;;;7.38;4.40;;;;;;;7.80;89.91;96134.55;127439;1104;22784;-87
2021/05/19 02:10:10;;;;;;;6.38;3.93;;;;;;;7.78;90.11;96134.03;127389;1104;54940;-85
2021/05/19 02:12:39;;;;;;;5.85;4.35;;;;;;;7.78;90.80;96134.03;127377;1104;27223;-85
2021/05/19 02:15:15;;;;;;;6.75;3.98;;;;;;;7.90;91.61;96139.78;127409;1096;29191;-85
2021/05/19 02:17:47;;;;;;;6.40;4.53;;;;;;;8.04;91.38;96140.76;127395;1103;25130;-83
2021/05/19 02:20:19;;;;;;;5.70;3.93;;;;;;;7.97;90.53;96142.89;127412;1103;28686;-83
2021/05/19 02:22:50;;;;;;;6.13;3.80;;;;;;;7.92;90.47;96146.36;127414;1096;44212;-84
2021/05/19 02:25:22;;;;;;;6.90;4.30;;;;;;;7.87;90.53;96149.00;127491;1102;27467;-87
2021/05/19 02:27:53;;;;;;;7.07;4.90;;;;;;;7.83;90.60;96152.47;127463;1096;32094;-85
2021/05/19 02:30:25;;;;;;;4.55;3.93;;;;;;;7.71;90.45;96148.29;127380;1100;27112;-83
2021/05/19 02:32:55;;;;;;;7.40;4.48;;;;;;;7.57;90.46;96155.20;127408;1103;26804;-82
2021/05/19 02:35:25;;;;;;;6.35;4.93;;;;;;;7.45;90.63;96152.87;127406;1103;27246;-84
2021/05/19 02:37:55;;;;;;;5.60;4.15;;;;;;;7.39;90.97;96153.17;127409;1102;26858;-82
2021/05/19 02:40:27;;;;;;;7.78;4.60;;;;;;;7.44;91.58;96150.50;127403;1104;26059;-83
2021/05/19 02:42:57;;;;;;;7.10;4.83;;;;;;;7.53;92.40;96156.81;127403;1103;25970;-83
2021/05/19 02:45:27;;;;;;;7.60;4.70;;;;;;;7.60;92.16;96154.69;127425;1103;25401;-83
2021/05/19 02:47:57;;;;;;;7.45;5.10;;;;;;;7.60;92.03;96161.78;127391;1103;33318;-83
2021/05/19 02:50:27;;;;;;;4.58;3.30;;;;;;;7.53;91.28;96156.02;127344;1102;31738;-82
2021/05/19 02:52:56;;;;;;;7.73;4.65;;;;;;;7.60;92.31;96154.69;127412;1103;29213;-82
2021/05/19 02:55:26;;;;;;;4.95;3.65;;;;;;;7.65;91.89;96161.78;127403;1099;26479;-83
2021/05/19 02:57:56;;;;;;;6.98;4.08;;;;;;;7.65;91.85;96159.94;127405;1102;25848;-82
2021/05/19 03:00:26;;;;;;;7.95;5.10;;;;;;;7.63;92.29;96166.55;127376;1104;24952;-83
2021/05/19 03:02:56;;;;;;;7.28;4.53;;;;;;;7.68;92.08;96169.16;127417;1103;27246;-81
2021/05/19 03:05:29;;;;;;;6.80;5.30;;;;;;;7.64;91.83;96166.27;127395;1103;29726;-83
2021/05/19 03:07:59;;;;;;;6.08;4.43;;;;;;;7.66;92.22;96158.88;127375;1104;30506;-83
2021/05/19 03:10:29;;;;;;;7.83;5.05;;;;;;;7.70;92.47;96159.91;127453;1103;24185;-85
2021/05/19 03:12:59;;;;;;;6.30;4.40;;;;;;;7.72;92.30;96163.06;127317;1096;42530;-83
2021/05/19 03:15:38;;;;;;;7.13;4.78;;;;;;;7.72;92.07;96163.06;127385;1103;28163;-83
2021/05/19 03:18:07;;;;;;;7.18;4.85;;;;;;;7.71;92.23;96161.48;127394;1104;33434;-83
2021/05/19 03:20:37;;;;;;;5.45;3.85;;;;;;;7.79;92.28;96156.72;127378;1102;29873;-83
2021/05/19 03:23:07;;;;;;;6.85;4.65;;;;;;;7.88;92.09;96165.63;127414;1104;23747;-83
2021/05/19 03:25:37;;;;;;;5.88;4.20;;;;;;;7.86;92.12;96167.75;127401;1104;27481;-84
2021/05/19 03:28:07;;;;;;;5.28;4.25;;;;;;;7.87;91.59;96164.05;127456;1104;23838;-83
2021/05/19 03:30:37;;;;;;;7.75;4.63;;;;;;;7.86;91.64;96168.54;127379;1096;51080;-82
2021/05/19 03:33:07;;;;;;;5.70;3.93;;;;;;;7.85;91.81;96163.53;127406;1103;24851;-84
2021/05/19 03:35:37;;;;;;;9.05;5.40;;;;;;;7.89;91.63;96167.23;127379;1098;26398;-83
2021/05/19 03:38:07;;;;;;;7.00;4.30;;;;;;;7.90;91.31;96174.09;127411;1104;24172;-84
2021/05/19 03:40:37;;;;;;;7.38;4.58;;;;;;;7.86;91.77;96179.09;127391;1098;26554;-84
2021/05/19 03:43:07;;;;;;;8.40;5.35;;;;;;;7.87;91.30;96177.25;127384;1103;26590;-82
2021/05/19 03:45:37;;;;;;;7.83;5.05;;;;;;;7.90;91.29;96185.43;127392;1104;24247;-83
2021/05/19 03:48:08;;;;;;;8.20;4.98;;;;;;;7.91;91.37;96189.65;127407;1103;23854;-84
2021/05/19 03:50:39;;;;;;;8.55;4.78;;;;;;;8.01;91.64;96186.16;127363;1104;32546;-82
2021/05/19 03:53:09;;;;;;;6.20;4.60;;;;;;;8.08;91.00;96191.94;127379;1104;27146;-85
2021/05/19 03:55:40;;;;;;;6.58;4.10;;;;;;;8.06;90.89;96191.42;127408;1104;27237;-86
2021/05/19 03:58:10;;;;;;;6.28;4.88;;;;;;;7.94;90.48;96194.38;127416;1104;29032;-83
2021/05/19 04:00:43;;;;;;;8.25;5.25;;;;;;;7.93;90.37;96194.66;127400;1104;30870;-84
2021/05/19 04:03:13;;;;;;;8.40;4.88;;;;;;;8.04;91.14;96196.19;127443;1104;23794;-86
2021/05/19 04:05:43;;;;;;;8.25;5.25;;;;;;;8.23;90.90;96199.78;127373;1104;32009;-83
2021/05/19 04:08:13;;;;;;;7.13;5.05;;;;;;;8.38;90.62;96201.56;127400;1100;67052;-86
2021/05/19 04:10:43;;;;;;;8.43;5.15;;;;;;;8.53;90.36;96201.47;127427;1104;26455;-84
2021/05/19 04:13:12;;;;;;;7.45;5.45;;;;;;;8.65;90.52;96200.34;127364;1104;31468;-83
2021/05/19 04:15:42;;;;;;;7.53;4.88;;;;;;;8.76;89.98;96202.63;127384;1104;28031;-83
2021/05/19 04:18:12;;;;;;;8.08;5.10;;;;;;;8.86;89.59;96201.75;127412;1104;31294;-85
2021/05/19 04:20:42;;;;;;;7.33;5.43;;;;;;;8.94;89.73;96206.45;127414;1104;22791;-84
2021/05/19 04:23:12;;;;;;;8.65;5.28;;;;;;;9.09;89.37;96210.82;127398;1104;27034;-84
2021/05/19 04:25:42;;;;;;;7.20;5.40;;;;;;;9.19;89.00;96210.73;127414;1104;25110;-82
2021/05/19 04:28:12;;;;;;;7.28;4.88;;;;;;;9.31;88.65;96213.02;127408;1104;27621;-86
2021/05/19 04:30:42;;;;;;;6.23;4.10;;;;;;;9.39;87.90;96205.23;127370;1104;59208;-85
2021/05/19 04:33:14;;;;;;;5.70;4.03;;;;;;;9.52;87.41;96204.58;127442;1100;28625;-83
2021/05/19 04:35:44;;;;;;;6.95;4.83;;;;;;;9.66;87.65;96209.98;127414;1100;25845;-84
2021/05/19 04:38:14;;;;;;;6.55;4.60;;;;;;;9.72;86.88;96210.73;127387;1097;28526;-87
2021/05/19 04:40:46;;;;;;;6.80;4.58;;;;;;;9.78;86.07;96218.33;127405;1104;27798;-83
2021/05/19 04:43:17;;;;;;;5.55;4.30;;;;;;;9.93;86.32;96214.72;127435;1104;23400;-88
2021/05/19 04:45:47;;;;;;;7.88;5.03;;;;;;;11.37;84.60;96212.34;127364;1104;27738;-84
2021/05/19 04:48:17;;;;;;;5.23;4.33;;;;;;;13.16;81.14;96206.76;127389;1102;27555;-85
2021/05/19 04:50:47;;;;;;;6.75;4.00;;;;;;;14.68;78.31;96205.27;127388;1104;24671;-84
2021/05/19 04:53:18;;;;;;;6.30;3.93;;;;;;;15.76;71.50;96207.89;127433;1104;25084;-85
2021/05/19 04:55:47;;;;;;;;;;;;;;;16.76;68.65;96204.52;127439;1104;23143;-83
2021/05/19 04:58:17;;;;;;;6.55;3.88;;;;;;;16.80;66.05;96213.45;127347;1104;49156;-84
2021/05/19 05:00:47;;;;;;;4.53;3.38;;;;;;;17.15;60.75;96205.89;127410;1104;25029;-84
2021/05/19 05:03:18;;;;;;;5.23;3.55;;;;;;;17.54;66.61;96206.45;127387;1104;75234;-85
2021/05/19 05:05:50;;;;;;;6.73;3.68;;;;;;;18.50;64.32;96214.87;127380;1104;26283;-85
2021/05/19 05:08:20;;;;;;;4.40;3.20;;;;;;;18.65;59.47;96206.14;127483;1103;25342;-85
2021/05/19 05:10:50;;;;;;;5.23;3.30;;;;;;;19.65;63.01;96203.48;127469;1104;32444;-84
2021/05/19 05:13:20;;;;;;;4.85;3.05;;;;;;;20.43;56.80;96205.37;127476;1102;25408;-85
2021/05/19 05:15:51;;;;;;;4.15;3.00;;;;;;;20.33;56.34;96216.64;127455;1104;26076;-84
2021/05/19 05:18:19;;;;;;;;;;;;;;;21.14;53.78;96211.45;127482;1104;27794;-86
2021/05/19 05:20:49;;;;;;;3.43;2.77;;;;;;;21.86;54.35;96223.19;127457;1104;24078;-84
2021/05/19 05:23:19;;;;;;;2.98;1.90;;;;;;;21.19;45.91;96209.23;127487;1104;23607;-84
2021/05/19 05:25:49;;;;;;;2.40;1.83;;;;;;;21.08;49.97;96216.33;127444;1104;31861;-85
2021/05/19 05:28:20;;;;;;;4.10;2.40;;;;;;;21.56;49.85;96214.19;127512;1104;34711;-84
2021/05/19 05:30:51;;;;;;;3.35;1.95;;;;;;;21.85;47.20;96218.93;127500;1104;26466;-86
2021/05/19 05:33:20;;;;;;;2.50;1.88;;;;;;;21.60;49.41;96217.72;127484;1104;27779;-87
2021/05/19 05:35:51;;;;;;;2.50;2.00;;;;;;;22.47;48.96;96222.22;127511;1104;28967;-85
2021/05/19 05:38:21;;;;;;;2.25;1.70;;;;;;;22.40;44.25;96229.46;127487;1100;48001;-87
2021/05/19 05:40:51;;;;;;;3.00;1.43;;;;;;;21.75;43.93;96230.31;127483;1104;23828;-86
2021/05/19 05:43:21;;;;;;;1.43;1.30;;;;;;;21.36;42.16;96229.60;127491;1104;25549;-86
2021/05/19 05:45:51;;;;;;;2.20;1.48;;;;;;;21.15;43.72;96229.95;127457;1104;33168;-84
2021/05/19 05:48:21;;;;;;;1.75;1.65;;;;;;;21.13;43.66;96226.84;127472;1104;23255;-84
2021/05/19 05:50:51;;;;;;;2.33;1.55;;;;;;;20.28;46.32;96235.77;127467;1103;29028;-84
2021/05/19 05:53:21;;;;;;;2.30;1.43;;;;;;;21.18;43.75;96229.24;127478;1104;26204;-85
2021/05/19 05:55:51;;;;;;;1.13;1.03;;;;;;;22.18;43.76;96234.52;127475;1104;41335;-87
2021/05/19 05:58:21;;;;;;;2.80;1.60;;;;;;;22.86;41.06;96243.63;127471;1104;34460;-84
2021/05/19 06:00:52;;;;;;;2.20;1.20;;;;;;;22.25;39.22;96243.89;127467;1098;26311;-85
2021/05/19 06:03:22;;;;;;;2.18;1.38;;;;;;;19.88;42.23;96252.88;127484;1104;22853;-85
2021/05/19 06:05:51;;;;;;;;;;;;;;;20.10;43.16;96254.95;127524;1104;28641;-85
2021/05/19 06:08:21;;;;;;;2.13;1.50;;;;;;;19.94;43.70;96248.01;127446;1104;27870;-84
2021/05/19 06:10:51;;;;;;;2.78;1.45;;;;;;;17.67;46.42;96254.39;127504;1104;24946;-85
2021/05/19 06:13:21;;;;;;;3.10;1.65;;;;;;;15.76;50.52;96250.66;127480;1104;28111;-85
2021/05/19 06:15:52;;;;;;;4.10;1.93;;;;;;;14.49;53.73;96258.11;127426;1099;33452;-84
2021/05/19 06:18:22;;;;;;;4.05;2.05;;;;;;;13.72;56.36;96263.95;127502;1104;30362;-85
2021/05/19 06:20:52;;;;;;;2.33;2.10;;;;;;;14.34;57.84;96264.64;127496;1100;28062;-85
2021/05/19 06:23:21;;;;;;;2.50;1.70;;;;;;;13.98;56.69;96259.52;127433;1104;58976;-83
2021/05/19 06:25:51;;;;;;;3.33;1.70;;;;;;;14.44;56.87;96247.59;127481;1098;26536;-85
2021/05/19 06:28:22;;;;;;;3.78;2.05;;;;;;;14.33;55.60;96267.62;127469;1104;31015;-85
2021/05/19 06:30:52;;;;;;;2.43;1.78;;;;;;;13.25;58.95;96269.64;127474;1104;28602;-84
2021/05/19 06:33:22;;;;;;;3.13;2.45;;;;;;;12.71;60.67;96265.27;127491;1103;29077;-85
2021/05/19 06:35:52;;;;;;;4.45;3.08;;;;;;;12.48;62.28;96269.75;127451;1103;28365;-84
2021/05/19 06:38:22;;;;;;;4.03;2.98;;;;;;;13.45;64.28;96260.36;127471;1104;22795;-86
2021/05/19 06:40:52;;;;;;;4.90;3.10;;;;;;;14.70;62.32;96261.77;127480;1100;27092;-84
2021/05/19 06:43:23;;;;;;;3.00;2.05;;;;;;;16.82;57.36;96246.81;127480;1104;31212;-85
2021/05/19 06:45:52;;;;;;;;;;;;;;;19.31;56.75;96245.99;127508;1104;26639;-83
2021/05/19 06:48:22;;;;;;;2.78;1.90;;;;;;;21.28;47.39;96246.80;127422;1104;25205;-85
2021/05/19 06:50:52;;;;;;;2.48;1.90;;;;;;;21.23;44.18;96247.81;127484;1104;24977;-85
2021/05/19 06:53:22;;;;;;;3.30;1.85;;;;;;;20.84;43.05;96246.27;127414;1104;39299;-86
2021/05/19 06:55:52;;;;;;;2.95;2.13;;;;;;;20.92;41.58;96247.95;127425;1104;26152;-85
2021/05/19 06:58:23;;;;;;;2.58;1.68;;;;;;;20.62;43.16;96245.02;127470;1100;25472;-87
2021/05/19 07:00:54;;;;;;;3.23;1.70;;;;;;;21.29;44.59;96254.53;127485;1104;23759;-85
2021/05/19 07:03:24;;;;;;;1.88;1.70;;;;;;;22.18;41.21;96252.64;127387;1104;42910;-84
2021/05/19 07:05:53;;;;;;;;;;;;;;;21.32;39.93;96244.94;127458;1104;23928;-83
2021/05/19 07:08:23;;;;;;;2.55;1.68;;;;;;;18.50;43.50;96247.08;127479;1104;23757;-84
2021/05/19 07:10:53;;;;;;;2.93;1.48;;;;;;;19.60;45.16;96241.40;127448;1104;27892;-83
2021/05/19 07:13:27;;;;;;;2.95;1.73;;;;;;;19.30;46.43;96247.13;127459;1102;24449;-87
2021/05/19 07:15:58;;;;;;;2.63;1.73;;;;;;;18.27;45.21;96252.91;127432;1104;31240;-84
2021/05/19 07:18:28;;;;;;;2.43;1.78;;;;;;;16.49;48.02;96244.03;127386;1104;27084;-85
2021/05/19 07:20:58;;;;;;;2.48;1.70;;;;;;;16.52;50.51;96248.73;127402;1104;26566;-83
2021/05/19 07:23:28;;;;;;;4.58;1.65;;;;;;;18.98;47.97;96249.67;127426;1104;22994;-84
2021/05/19 07:25:58;;;;;;;1.80;1.45;;;;;;;20.52;43.25;96246.33;127401;1104;28079;-84
2021/05/19 07:28:28;;;;;;;3.13;1.78;;;;;;;20.45;43.62;96248.88;127421;1104;26122;-86
2021/05/19 07:30:58;;;;;;;2.40;1.68;;;;;;;20.24;42.03;96245.65;127437;1104;26331;-84
2021/05/19 07:33:28;;;;;;;2.88;1.80;;;;;;;20.71;41.59;96243.69;127471;1104;23476;-86
2021/05/19 07:35:59;;;;;;;1.83;1.20;;;;;;;21.55;40.63;96237.69;127419;1104;24331;-85
2021/05/19 07:38:28;;;;;;;1.20;1.08;;;;;;;22.07;38.37;96238.97;127401;1104;23951;-87
2021/05/19 07:41:09;;;;;;;3.08;1.08;;;;;;;20.61;38.98;96230.77;127411;1104;23479;-85
2021/05/19 07:43:37;;;;;;;;;;;;;;;18.79;43.67;96241.46;127497;1103;23451;-85
2021/05/19 07:46:07;;;;;;;2.05;0.98;;;;;;;20.21;43.99;96240.97;127417;1099;30884;-86
2021/05/19 07:48:37;;;;;;;1.60;0.90;;;;;;;21.74;39.39;96236.85;127411;1104;26727;-87
2021/05/19 07:51:07;;;;;;;1.75;1.20;;;;;;;21.96;38.21;96235.31;127391;1104;58146;-90
2021/05/19 07:53:38;;;;;;;2.70;1.83;;;;;;;22.93;41.25;96232.89;127426;1104;29922;-85
2021/05/19 07:56:13;;;;;;;1.83;1.30;;;;;;;22.80;36.65;96202.61;127430;1099;22854;-90
2021/05/19 07:58:46;;;;;;;1.83;1.55;;;;;;;19.96;39.81;96235.77;127406;1100;28094;-85
2021/05/19 08:01:33;;;;;;;2.10;1.60;;;;;;;20.56;41.37;96243.73;127427;1104;29751;-86
2021/05/19 08:04:03;;;;;;;2.50;1.30;;;;;;;20.16;42.13;96239.33;127441;1104;27890;-88
2021/05/19 08:06:32;;;;;;;;;;;;;;;21.18;40.98;96239.25;127508;1102;27812;-89
2021/05/19 08:09:02;;;;;;;1.80;1.13;;;;;;;21.43;39.05;96227.05;127431;1104;22241;-88
2021/05/19 08:11:32;;;;;;;;;;;;;;;19.42;40.95;96230.13;127446;1104;23076;-88
2021/05/19 08:14:02;;;;;;;2.00;1.73;;;;;;;17.47;44.69;96239.16;127416;1104;36712;-87
2021/05/19 08:16:32;;;;;;;3.08;2.23;;;;;;;16.07;48.36;96231.69;127400;1103;31341;-84
2021/05/19 08:19:03;;;;;;;2.83;1.97;;;;;;;17.76;49.01;96239.03;127439;1104;26090;-87
2021/05/19 08:21:33;;;;;;;3.13;1.88;;;;;;;20.36;44.56;96232.09;127424;1103;29578;-85
2021/05/19 08:24:03;;;;;;;1.93;1.58;;;;;;;20.70;42.02;96231.36;127435;1103;26717;-85
2021/05/19 08:26:33;;;;;;;2.60;1.80;;;;;;;18.88;43.75;96226.00;127473;1097;29164;-88
2021/05/19 08:29:03;;;;;;;2.38;1.58;;;;;;;17.73;45.16;96218.22;127407;1104;41183;-87
2021/05/19 08:31:34;;;;;;;2.33;1.70;;;;;;;16.76;47.67;96237.42;127442;1104;27634;-85
2021/05/19 08:34:04;;;;;;;2.70;1.98;;;;;;;16.97;48.85;96237.41;127436;1103;23081;-88
2021/05/19 08:36:35;;;;;;;3.30;2.27;;;;;;;16.33;50.16;96230.44;127333;1104;29813;-89
2021/05/19 08:39:05;;;;;;;3.13;2.20;;;;;;;19.22;50.78;96226.53;127402;1099;27149;-86
2021/05/19 08:41:36;;;;;;;2.28;1.95;;;;;;;21.72;45.33;96225.64;127439;1104;30441;-86
2021/05/19 08:44:07;;;;;;;2.58;1.98;;;;;;;23.24;45.57;96220.93;127407;1103;27735;-88
2021/05/19 08:46:44;;;;;;;3.08;1.80;;;;;;;24.53;43.49;96228.30;127383;1104;33455;-84
2021/05/19 08:49:16;;;;;;;2.13;1.70;;;;;;;22.72;38.94;96227.20;127426;1103;30434;-88
2021/05/19 08:51:46;;;;;;;3.43;1.95;;;;;;;19.86;41.90;96225.55;127441;1098;26251;-85
2021/05/19 08:54:17;;;;;;;;;;;;;;;18.39;44.55;96244.84;127440;1104;26177;-87
2021/05/19 08:56:50;;;;;;;2.45;1.80;;;;;;;17.21;46.41;96234.84;127412;1104;24200;-88
2021/05/19 08:59:21;;;;;;;3.85;2.73;;;;;;;16.49;48.85;96244.03;127461;1103;26440;-85
2021/05/19 09:01:52;;;;;;;4.53;2.55;;;;;;;16.02;49.88;96238.77;127487;1104;26056;-83
2021/05/19 09:04:24;;;;;;;5.65;3.40;;;;;;;15.52;52.16;96249.30;127484;1103;26159;-86
2021/05/19 09:06:59;;;;;;;3.13;2.83;;;;;;;15.26;53.10;96246.67;127451;1103;27135;-83
2021/05/19 09:09:31;;;;;;;4.23;3.63;;;;;;;15.02;53.44;96241.82;127347;1103;32716;-84
2021/05/19 09:12:08;;;;;;;4.70;3.10;;;;;;;16.99;55.48;96239.75;127405;1098;28381;-84
2021/05/19 09:14:39;;;;;;;5.18;3.68;;;;;;;17.54;50.71;96238.61;127413;1103;24739;-87
2021/05/19 09:17:21;;;;;;;4.13;3.53;;;;;;;16.39;51.24;96236.38;127400;1104;24154;-85
2021/05/19 09:19:53;;;;;;;5.40;4.58;;;;;;;15.51;54.00;96250.41;127467;1104;26159;-85
2021/05/19 09:22:26;;;;;;;4.55;3.60;;;;;;;14.69;54.76;96246.86;127470;1104;27277;-85
2021/05/19 09:24:56;;;;;;;7.25;4.85;;;;;;;14.35;55.78;96246.76;127378;1104;29337;-85
2021/05/19 09:27:40;;;;;;;4.98;4.40;;;;;;;14.10;57.03;96246.41;127387;1104;27625;-83
2021/05/19 09:30:12;;;;;;;6.60;4.75;;;;;;;13.84;58.69;96240.19;127411;1104;31982;-87
2021/05/19 09:32:44;;;;;;;7.43;4.55;;;;;;;13.73;59.66;96245.00;127435;1104;28105;-84
2021/05/19 09:35:15;;;;;;;6.98;5.13;;;;;;;13.59;59.79;96245.09;127405;1104;39834;-86
2021/05/19 09:37:45;;;;;;;7.80;6.00;;;;;;;13.45;60.60;96251.59;127440;1100;27536;-85
2021/05/19 09:40:16;;;;;;;7.88;6.08;;;;;;;13.29;61.78;96245.86;127396;1104;32980;-86
2021/05/19 09:42:49;;;;;;;9.60;6.67;;;;;;;13.21;62.71;96250.02;127460;1096;27258;-84
2021/05/19 09:45:24;;;;;;;8.40;6.50;;;;;;;13.15;63.06;96247.77;127421;1104;28300;-88
2021/05/19 09:47:56;;;;;;;8.20;6.18;;;;;;;13.13;62.91;96260.60;127447;1104;24885;-82
2021/05/19 09:50:41;;;;;;;7.25;5.18;;;;;;;13.21;63.70;96252.69;127436;1096;25900;-83
2021/05/19 09:53:12;;;;;;;9.23;6.90;;;;;;;13.35;62.46;96250.74;127467;1104;29504;-88
2021/05/19 09:56:03;;;;;;;8.73;5.83;;;;;;;13.59;62.76;96255.73;127399;1099;27213;-86
2021/05/19 09:58:36;;;;;;;7.38;5.50;;;;;;;13.98;62.30;96251.53;127411;1104;29449;-87
2021/05/19 10:01:07;;;;;;;6.95;5.15;;;;;;;14.36;61.15;96245.69;127406;1104;26868;-85
2021/05/19 10:07:20;;;;;;;6.23;4.75;;;;;;;14.97;60.34;96236.66;127479;1104;38971;-87
2021/05/19 10:10:08;;;;;;;7.18;4.58;;;;;;;15.27;60.40;96242.12;127420;1104;39641;-87
2021/05/19 10:12:40;;;;;;;5.73;4.67;;;;;;;15.19;57.29;96235.67;127456;1104;28369;-84
2021/05/19 10:15:13;;;;;;;5.20;3.95;;;;;;;14.65;58.78;96235.24;127420;1104;23524;-89
2021/05/19 10:17:47;;;;;;;4.68;4.00;;;;;;;14.33;58.41;96238.28;127464;1104;22906;-86
2021/05/19 10:20:21;;;;;;;5.50;4.10;;;;;;;14.34;59.19;96232.64;127452;1104;54822;-86
2021/05/19 10:22:52;;;;;;;6.35;4.73;;;;;;;14.50;59.27;96228.48;127507;1104;23364;-85
2021/05/19 10:25:35;;;;;;;5.93;4.63;;;;;;;14.36;59.23;96235.02;127496;1104;25240;-87
2021/05/19 10:28:09;;;;;;;6.60;4.65;;;;;;;14.44;60.77;96235.05;127420;1104;27154;-87
2021/05/19 10:30:46;;;;;;;6.03;4.35;;;;;;;14.64;59.67;96227.53;127404;1098;27307;-91
2021/05/19 10:33:46;;;;;;;6.48;4.63;;;;;;;14.48;59.40;96233.32;127457;1102;28710;-87
2021/05/19 10:36:37;;;;;;;6.05;4.43;;;;;;;14.10;59.08;96232.29;127397;1104;27782;-86
2021/05/19 10:39:28;;;;;;;6.23;4.43;;;;;;;13.93;59.71;96235.66;127468;1104;27737;-86
2021/05/19 10:41:58;;;;;;;6.85;5.08;;;;;;;13.62;59.70;96236.48;127444;1104;24485;-85
2021/05/19 10:44:29;;;;;;;;;;;;;;;13.38;60.73;96241.38;127456;1104;23531;-87
2021/05/19 10:47:03;;;;;;;8.30;5.80;;;;;;;13.30;61.16;96245.55;127409;1104;22630;-86
2021/05/19 10:50:11;;;;;;;8.75;6.10;;;;;;;13.40;61.45;96239.20;127450;1103;26321;-89
2021/05/19 10:58:50;;;;;;;6.75;5.50;;;;;;;13.82;60.98;96239.72;127611;1103;22850;-84
2021/05/19 11:01:59;;;;;;;6.83;4.98;;;;;;;13.89;60.24;96242.70;127641;1100;23370;-86
2021/05/19 11:04:29;;;;;;;7.55;5.03;;;;;;;14.08;60.35;96239.81;127543;1098;31998;-85
2021/05/19 11:07:10;;;;;;;7.93;5.45;;;;;;;14.02;59.80;96241.81;127584;1104;23823;-85
2021/05/19 11:09:45;;;;;;;7.73;6.03;;;;;;;13.91;60.35;96243.18;127495;1103;81854;-85
2021/05/19 11:12:49;;;;;;;9.20;5.68;;;;;;;13.77;60.65;96245.16;127569;1104;25991;-86
2021/05/19 11:16:10;;;;;;;9.23;6.55;;;;;;;13.74;61.22;96240.45;127646;1104;22874;-87
2021/05/19 11:21:30;;;;;;;9.63;7.33;;;;;;;14.06;61.38;96253.42;127531;1104;24185;-85
2021/05/19 11:24:10;;;;;;;9.40;6.18;;;;;;;14.26;60.68;96239.54;127498;1104;29779;-86
2021/05/19 11:26:42;;;;;;;9.70;6.23;;;;;;;14.53;61.02;96238.52;127557;1104;25988;-87
2021/05/19 11:29:14;;;;;;;8.83;6.53;;;;;;;14.80;61.23;96234.78;127570;1096;28822;-86
2021/05/19 11:31:47;;;;;;;9.08;7.15;;;;;;;15.01;60.73;96229.58;127554;1104;24261;-87
2021/05/19 11:34:20;;;;;;;8.40;5.98;;;;;;;15.08;60.62;96221.11;127556;1103;40007;-87
2021/05/19 11:36:53;;;;;;;8.20;6.48;;;;;;;15.00;60.07;96228.01;127616;1104;31076;-91
2021/05/19 11:39:34;;;;;;;10.38;6.53;;;;;;;15.11;59.97;96226.59;127587;1104;25746;-86
2021/05/19 11:42:19;;;;;;;9.68;6.85;;;;;;;15.03;59.39;96229.26;127623;1100;36979;-88
2021/05/19 11:44:54;;;;;;;7.78;5.80;;;;;;;15.00;59.78;96229.89;127601;1104;23409;-87
2021/05/19 11:47:37;;;;;;;7.50;6.08;;;;;;;15.03;60.13;96229.26;127545;1104;23581;-85
2021/05/19 11:50:20;;;;;;;8.23;6.03;;;;;;;15.03;59.76;96222.03;127533;1099;24388;-87
2021/05/19 11:52:54;;;;;;;7.65;6.10;;;;;;;14.97;59.25;96214.52;127605;1098;25915;-85
2021/05/19 11:55:28;;;;;;;8.38;6.13;;;;;;;14.99;59.01;96221.10;127576;1104;25341;-84
2021/05/19 11:58:08;;;;;;;8.18;6.58;;;;;;;15.14;59.21;96219.83;127559;1104;26759;-84
2021/05/19 12:00:40;;;;;;;8.20;6.08;;;;;;;15.06;57.92;96217.94;127684;1104;23828;-85
2021/05/19 12:03:11;;;;;;;7.53;5.83;;;;;;;14.71;57.88;96225.19;127543;1104;25813;-87
2021/05/19 12:05:43;;;;;;;9.57;6.10;;;;;;;14.47;58.95;96225.63;127492;1096;26648;-85
2021/05/19 12:08:14;;;;;;;9.68;6.23;;;;;;;14.52;59.66;96222.83;127595;1104;30735;-85